Time;durP1;ratioP1;P1;durP2;ratioP2;P2;SDS_P1;SDS_P2;PMS_P1;PMS_P2;Temp;Humidity;BMP_temperature;BMP_pressure;BME280_temperature;BME280_humidity;BME280_pressure;Samples;Min_cycle;Max_cycle;Signal;HPM_P1;HPM_P2
2021/12/13 00:00:11;;;;;;;46.43;25.30;;;7.10;99.90;;;;;;5011184;28;20437;-48
2021/12/13 00:02:48;;;;;;;39.20;23.00;;;7.10;99.90;;;;;;5011567;28;20405;-50
2021/12/13 00:05:18;;;;;;;45.07;25.40;;;6.70;99.90;;;;;;5011829;28;20490;-49
2021/12/13 00:07:53;;;;;;;42.30;26.63;;;7.50;99.90;;;;;;5011704;28;20442;-48
2021/12/13 00:10:24;;;;;;;34.37;22.67;;;7.10;99.90;;;;;;5011409;28;20430;-49
2021/12/13 00:12:59;;;;;;;31.37;21.07;;;7.10;99.90;;;;;;5011387;28;20447;-48
2021/12/13 00:15:32;;;;;;;40.37;23.47;;;7.10;99.90;;;;;;5014291;28;20481;-49
2021/12/13 00:18:00;;;;;;;39.97;22.80;;;7.30;99.90;;;;;;5014432;28;20488;-48
2021/12/13 00:20:37;;;;;;;36.47;21.90;;;7.40;99.90;;;;;;5014830;28;20793;-48
2021/12/13 00:23:11;;;;;;;38.77;22.80;;;7.20;99.90;;;;;;5014939;28;20442;-49
2021/12/13 00:25:42;;;;;;;33.83;20.67;;;7.20;99.90;;;;;;5014661;28;20922;-48
2021/12/13 00:28:13;;;;;;;37.20;21.47;;;7.20;99.90;;;;;;5014561;28;20441;-49
2021/12/13 00:31:00;;;;;;;33.37;19.63;;;7.20;99.90;;;;;;5015101;28;20443;-49
2021/12/13 00:33:35;;;;;;;32.47;22.23;;;7.20;99.90;;;;;;5014918;28;20434;-49
2021/12/13 00:36:08;;;;;;;41.43;24.67;;;7.40;99.90;;;;;;5014497;28;20448;-50
2021/12/13 00:38:41;;;;;;;34.40;23.30;;;7.40;99.90;;;;;;5014336;28;20435;-49
2021/12/13 00:41:13;;;;;;;38.00;23.90;;;6.90;99.90;;;;;;5014480;28;20481;-48
2021/12/13 00:43:46;;;;;;;36.50;24.47;;;7.20;99.90;;;;;;5014515;28;20964;-49
2021/12/13 00:46:16;;;;;;;40.93;24.83;;;7.40;99.90;;;;;;5014450;28;20787;-49
2021/12/13 00:48:47;;;;;;;36.80;24.40;;;7.50;99.90;;;;;;5013898;28;20394;-49
2021/12/13 00:51:17;;;;;;;39.77;23.20;;;7.30;99.90;;;;;;5014330;28;20438;-48
2021/12/13 00:53:47;;;;;;;36.00;23.83;;;7.30;99.90;;;;;;5014164;28;20445;-48
2021/12/13 00:56:56;;;;;;;34.40;24.00;;;7.10;99.90;;;;;;5014313;28;20433;-49
2021/12/13 00:59:26;;;;;;;38.63;25.40;;;7.30;99.90;;;;;;5013833;28;20442;-49
2021/12/13 01:02:00;;;;;;;31.37;20.73;;;7.30;99.90;;;;;;5013942;28;20482;-49
2021/12/13 01:04:47;;;;;;;35.20;21.40;;;7.20;99.90;;;;;;5013853;28;20462;-50
2021/12/13 01:07:57;;;;;;;30.27;21.03;;;7.00;99.90;;;;;;5014031;28;20443;-49
2021/12/13 01:11:04;;;;;;;27.97;18.73;;;7.40;99.90;;;;;;5013958;28;20755;-49
2021/12/13 01:13:36;;;;;;;29.93;21.00;;;7.50;99.90;;;;;;5013836;28;20627;-49
2021/12/13 01:16:17;;;;;;;32.10;21.40;;;7.30;99.90;;;;;;5013796;28;20445;-50
2021/12/13 01:19:02;;;;;;;30.40;19.40;;;7.30;99.90;;;;;;5013168;28;20454;-50
2021/12/13 01:21:41;;;;;;;29.73;18.00;;;7.30;99.90;;;;;;5013635;28;20976;-51
2021/12/13 01:24:14;;;;;;;30.40;19.30;;;7.40;99.90;;;;;;5013734;28;20482;-48
2021/12/13 01:26:45;;;;;;;29.70;19.00;;;7.30;99.90;;;;;;5012794;28;20947;-48
2021/12/13 01:29:16;;;;;;;28.70;18.13;;;7.00;99.90;;;;;;5013415;28;20409;-50
2021/12/13 01:31:45;;;;;;;30.00;19.97;;;7.40;99.90;;;;;;5013719;28;20449;-48
2021/12/13 01:34:14;;;;;;;29.70;19.77;;;7.50;99.90;;;;;;5013382;28;21029;-49
2021/12/13 01:36:53;;;;;;;30.30;19.47;;;6.90;99.90;;;;;;5013417;28;20570;-48
2021/12/13 01:39:23;;;;;;;31.10;17.80;;;7.50;99.90;;;;;;5013454;28;20439;-49
2021/12/13 01:41:53;;;;;;;30.27;19.33;;;7.10;99.90;;;;;;5013509;28;20477;-49
2021/12/13 01:44:23;;;;;;;31.00;20.47;;;7.50;99.90;;;;;;5013748;28;20454;-50
2021/12/13 01:46:52;;;;;;;33.50;20.70;;;7.10;99.90;;;;;;5013097;28;20447;-50
2021/12/13 01:49:20;;;;;;;30.43;19.30;;;7.10;99.90;;;;;;5012995;28;20496;-49
2021/12/13 01:51:48;;;;;;;29.10;17.47;;;7.50;99.90;;;;;;5013993;28;20851;-49
2021/12/13 01:54:18;;;;;;;28.60;18.53;;;7.60;99.90;;;;;;5041723;23;20981;-48
2021/12/13 01:56:54;;;;;;;32.93;19.27;;;7.60;99.90;;;;;;5032018;28;20927;-48
2021/12/13 01:59:41;;;;;;;30.87;20.00;;;7.60;99.90;;;;;;5031635;28;20469;-48
2021/12/13 02:02:24;;;;;;;28.97;18.47;;;7.50;99.90;;;;;;5031842;28;21071;-47
2021/12/13 02:05:01;;;;;;;28.60;19.37;;;7.60;99.90;;;;;;5031960;28;20826;-49
2021/12/13 02:07:35;;;;;;;28.30;17.73;;;7.50;99.90;;;;;;5032120;28;20442;-49
2021/12/13 02:10:06;;;;;;;29.80;17.87;;;7.40;99.90;;;;;;5031743;28;20426;-49
2021/12/13 02:12:36;;;;;;;29.70;17.87;;;7.50;99.90;;;;;;5031878;28;20810;-49
2021/12/13 02:17:49;;;;;;;27.00;17.20;;;7.50;99.90;;;;;;5031664;28;20821;-49
2021/12/13 02:20:23;;;;;;;30.87;17.90;;;7.10;99.90;;;;;;5031803;28;21031;-49
2021/12/13 02:22:54;;;;;;;28.93;17.90;;;7.60;99.90;;;;;;5032130;28;20682;-50
2021/12/13 02:25:25;;;;;;;32.37;19.73;;;7.70;99.90;;;;;;5032102;28;20432;-50
2021/12/13 02:27:56;;;;;;;30.10;17.47;;;7.30;99.90;;;;;;5031880;28;20444;-48
2021/12/13 02:30:30;;;;;;;27.80;17.37;;;7.30;99.90;;;;;;5031409;28;20772;-48
2021/12/13 02:32:57;;;;;;;26.20;17.60;;;7.50;99.90;;;;;;5032394;28;20417;-48
2021/12/13 02:35:29;;;;;;;31.63;18.40;;;7.60;99.90;;;;;;5032736;28;20455;-48
2021/12/13 02:37:59;;;;;;;26.83;17.70;;;7.40;99.90;;;;;;5032054;28;20419;-49
2021/12/13 02:40:26;;;;;;;32.63;19.97;;;7.50;99.90;;;;;;5032175;28;20438;-49
2021/12/13 02:42:53;;;;;;;31.70;19.40;;;7.10;99.90;;;;;;5031480;28;20696;-49
2021/12/13 02:45:26;;;;;;;32.00;18.80;;;7.50;99.90;;;;;;5031271;28;20458;-49
2021/12/13 02:48:00;;;;;;;32.17;19.00;;;8.00;99.90;;;;;;5031041;28;20831;-49
2021/12/13 02:50:36;;;;;;;35.30;19.17;;;7.60;99.90;;;;;;5031324;28;20430;-50
2021/12/13 02:53:04;;;;;;;29.10;17.90;;;7.80;99.90;;;;;;5031463;28;20468;-50
2021/12/13 02:55:32;;;;;;;32.53;18.23;;;7.70;99.90;;;;;;5030896;28;20538;-49
2021/12/13 02:58:04;;;;;;;31.77;18.70;;;7.30;99.90;;;;;;5030911;28;20426;-50
2021/12/13 03:00:36;;;;;;;31.23;19.53;;;7.20;99.90;;;;;;5030941;28;20424;-49
2021/12/13 03:03:08;;;;;;;33.93;20.00;;;7.70;99.90;;;;;;5031049;28;20462;-48
2021/12/13 03:05:39;;;;;;;32.57;17.70;;;7.60;99.90;;;;;;5030944;28;20985;-49
2021/12/13 03:08:15;;;;;;;31.03;18.67;;;7.10;99.90;;;;;;5030646;28;20413;-49
2021/12/13 03:10:48;;;;;;;27.90;15.50;;;7.60;99.90;;;;;;5030829;28;20412;-50
2021/12/13 03:13:14;;;;;;;29.20;17.87;;;7.90;99.90;;;;;;5031055;28;20908;-49
2021/12/13 03:15:48;;;;;;;35.27;19.90;;;7.20;99.90;;;;;;5030905;28;20553;-50
2021/12/13 03:18:20;;;;;;;34.27;18.93;;;7.40;99.90;;;;;;5030527;28;20451;-49
2021/12/13 03:21:08;;;;;;;31.60;18.17;;;7.80;99.90;;;;;;5030816;28;20443;-50
2021/12/13 03:23:49;;;;;;;30.20;18.80;;;7.60;99.90;;;;;;5030874;28;20442;-49
2021/12/13 03:26:47;;;;;;;30.27;18.23;;;7.50;99.90;;;;;;5030772;28;21007;-49
2021/12/13 03:29:19;;;;;;;31.20;17.00;;;7.80;99.90;;;;;;5030712;28;20765;-49
2021/12/13 03:31:49;;;;;;;29.67;17.67;;;8.10;99.90;;;;;;5030751;28;20521;-49
2021/12/13 03:34:22;;;;;;;32.30;17.33;;;7.20;99.90;;;;;;5030706;28;20797;-49
2021/12/13 03:36:56;;;;;;;30.77;17.37;;;7.70;99.90;;;;;;5030645;28;20434;-49
2021/12/13 03:39:28;;;;;;;35.53;18.50;;;7.50;99.90;;;;;;5030378;28;20404;-50
2021/12/13 03:41:57;;;;;;;37.13;18.57;;;7.60;99.90;;;;;;5030539;28;20462;-49
2021/12/13 03:44:28;;;;;;;33.67;18.67;;;7.70;99.90;;;;;;5030762;28;20743;-48
2021/12/13 03:47:07;;;;;;;37.00;19.03;;;7.70;99.90;;;;;;5030656;28;20425;-49
2021/12/13 03:49:39;;;;;;;30.03;17.70;;;7.30;99.90;;;;;;5032421;28;20412;-49
2021/12/13 03:52:08;;;;;;;30.63;16.33;;;7.80;99.90;;;;;;5034554;28;20677;-49
2021/12/13 03:54:39;;;;;;;28.10;17.50;;;7.70;99.90;;;;;;5034290;28;20473;-49
2021/12/13 03:57:06;;;;;;;34.00;17.50;;;7.70;99.90;;;;;;5034300;28;20441;-49
2021/12/13 03:59:34;;;;;;;30.93;16.97;;;7.80;99.90;;;;;;5034107;28;20913;-49
2021/12/13 04:02:06;;;;;;;31.17;17.20;;;7.80;99.90;;;;;;5034109;28;20480;-49
2021/12/13 04:04:38;;;;;;;40.77;17.87;;;7.70;99.90;;;;;;5034278;28;20529;-50
2021/12/13 04:07:09;;;;;;;33.10;18.13;;;7.60;99.90;;;;;;5034202;28;20768;-49
2021/12/13 04:09:38;;;;;;;29.43;16.33;;;7.60;99.90;;;;;;5032535;28;20449;-49
2021/12/13 04:12:08;;;;;;;33.17;16.37;;;7.70;99.90;;;;;;5032616;28;20450;-50
2021/12/13 04:14:41;;;;;;;39.00;19.30;;;7.70;99.90;;;;;;5034048;28;20461;-50
2021/12/13 04:17:34;;;;;;;34.30;16.53;;;7.60;99.90;;;;;;5033936;28;20952;-50
2021/12/13 04:20:03;;;;;;;32.27;17.00;;;7.70;99.90;;;;;;5033543;28;20925;-50
2021/12/13 04:22:33;;;;;;;30.93;16.77;;;7.50;99.90;;;;;;5033703;28;20469;-49
2021/12/13 04:25:04;;;;;;;32.87;16.50;;;7.80;99.90;;;;;;5033700;28;20458;-50
2021/12/13 04:27:35;;;;;;;34.13;17.83;;;8.00;99.90;;;;;;5033715;28;20438;-49
2021/12/13 04:30:08;;;;;;;36.93;18.53;;;7.60;99.90;;;;;;5033390;28;20774;-49
2021/12/13 04:32:38;;;;;;;33.83;17.23;;;7.80;99.90;;;;;;5033707;28;20434;-50
2021/12/13 04:35:10;;;;;;;36.33;18.40;;;7.40;99.90;;;;;;5033436;28;20453;-50
2021/12/13 04:37:43;;;;;;;40.33;17.53;;;7.80;99.90;;;;;;5033348;28;20531;-50
2021/12/13 04:40:15;;;;;;;32.43;16.27;;;7.70;99.90;;;;;;5033652;28;20441;-48
2021/12/13 04:42:43;;;;;;;36.10;17.27;;;7.80;99.90;;;;;;5033550;28;20837;-48
2021/12/13 04:45:13;;;;;;;32.80;17.03;;;7.90;99.90;;;;;;5033426;28;20457;-49
2021/12/13 04:47:48;;;;;;;32.13;16.90;;;8.00;99.90;;;;;;5031897;28;20421;-49
2021/12/13 04:50:17;;;;;;;29.37;16.10;;;7.70;99.90;;;;;;5033375;28;20464;-49
2021/12/13 04:52:46;;;;;;;34.60;16.50;;;8.00;99.90;;;;;;5033213;28;20446;-49
2021/12/13 04:55:20;;;;;;;38.90;16.80;;;7.80;99.90;;;;;;5033215;28;20474;-49
2021/12/13 04:57:49;;;;;;;31.93;16.60;;;7.60;99.90;;;;;;5032757;28;20778;-50
2021/12/13 05:00:19;;;;;;;32.00;16.33;;;8.00;99.90;;;;;;5032002;28;20414;-49
2021/12/13 05:02:48;;;;;;;34.13;17.10;;;7.50;99.90;;;;;;5032675;28;20484;-49
2021/12/13 05:05:16;;;;;;;33.90;16.60;;;8.00;99.90;;;;;;5033067;28;20450;-49
2021/12/13 05:07:45;;;;;;;36.27;17.47;;;7.40;99.90;;;;;;5031007;28;20466;-50
2021/12/13 05:10:15;;;;;;;33.70;17.07;;;8.00;99.90;;;;;;5032746;28;20438;-49
2021/12/13 05:12:57;;;;;;;33.77;15.87;;;7.80;99.90;;;;;;5032827;28;20962;-50
2021/12/13 05:15:26;;;;;;;32.47;17.63;;;7.70;99.90;;;;;;5032557;28;20421;-49
2021/12/13 05:17:54;;;;;;;33.30;18.07;;;7.50;99.90;;;;;;5032027;28;20432;-48
2021/12/13 05:20:24;;;;;;;41.80;19.07;;;7.80;99.90;;;;;;5032812;28;20398;-49
2021/12/13 05:22:54;;;;;;;37.90;18.60;;;7.90;99.90;;;;;;5032548;28;20580;-50
2021/12/13 05:25:31;;;;;;;34.13;16.77;;;7.90;99.90;;;;;;5032573;28;20432;-50
2021/12/13 05:28:01;;;;;;;35.57;17.23;;;7.90;99.90;;;;;;5032284;28;20437;-49
2021/12/13 05:30:29;;;;;;;38.03;18.57;;;7.80;99.90;;;;;;5032902;28;20408;-47
2021/12/13 05:32:59;;;;;;;40.00;18.23;;;7.90;99.90;;;;;;5032490;28;20433;-50
2021/12/13 05:35:30;;;;;;;35.10;18.00;;;7.90;99.90;;;;;;5032380;28;20435;-50
2021/12/13 05:38:00;;;;;;;44.07;19.53;;;8.00;99.90;;;;;;5031621;28;20472;-49
2021/12/13 05:40:37;;;;;;;42.80;19.00;;;7.90;99.90;;;;;;5032486;28;20445;-49
2021/12/13 05:43:18;;;;;;;39.03;18.80;;;8.10;99.90;;;;;;5032046;28;20545;-49
2021/12/13 05:45:48;;;;;;;41.30;18.87;;;7.80;99.90;;;;;;5032395;28;20457;-49
2021/12/13 05:48:19;;;;;;;44.43;20.10;;;7.90;99.90;;;;;;5031641;28;20961;-50
2021/12/13 05:50:49;;;;;;;44.43;18.40;;;8.10;99.90;;;;;;5031901;28;20426;-50
2021/12/13 05:53:22;;;;;;;52.50;19.27;;;7.90;99.90;;;;;;5032136;28;20431;-49
2021/12/13 05:55:59;;;;;;;39.23;16.87;;;7.40;99.90;;;;;;5031771;28;20489;-49
2021/12/13 05:58:33;;;;;;;48.80;18.57;;;7.90;99.90;;;;;;5031620;28;20433;-49
2021/12/13 06:01:05;;;;;;;42.53;17.73;;;8.20;99.90;;;;;;5031752;28;20438;-49
2021/12/13 06:03:35;;;;;;;56.80;19.07;;;8.10;99.90;;;;;;5030142;28;20988;-49
2021/12/13 06:06:10;;;;;;;53.50;17.73;;;8.40;99.90;;;;;;5031805;28;20438;-49
2021/12/13 06:08:44;;;;;;;56.90;20.70;;;8.30;99.90;;;;;;5031495;28;20481;-50
2021/12/13 06:11:15;;;;;;;50.67;19.20;;;8.00;99.90;;;;;;5031456;28;20775;-49
2021/12/13 06:13:57;;;;;;;51.13;18.37;;;7.90;99.90;;;;;;5031272;28;20414;-50
2021/12/13 06:16:49;;;;;;;48.43;17.80;;;7.80;99.90;;;;;;5031705;28;20435;-49
2021/12/13 06:19:26;;;;;;;54.60;19.90;;;8.00;99.90;;;;;;5012330;28;20466;-50
2021/12/13 06:22:14;;;;;;;62.20;22.10;;;8.00;99.90;;;;;;5029881;28;20456;-48
2021/12/13 06:24:44;;;;;;;48.53;17.77;;;8.00;99.90;;;;;;5031462;28;20757;-50
2021/12/13 06:27:17;;;;;;;51.03;20.00;;;7.90;99.90;;;;;;5029713;28;20539;-50
2021/12/13 06:30:02;;;;;;;51.53;19.60;;;7.40;99.90;;;;;;5030608;28;20930;-50
2021/12/13 06:32:37;;;;;;;54.73;20.03;;;8.10;99.90;;;;;;5030997;28;20435;-49
2021/12/13 06:35:38;;;;;;;45.97;20.53;;;8.10;99.90;;;;;;5029713;28;20452;-49
2021/12/13 06:38:28;;;;;;;52.20;19.50;;;8.20;99.90;;;;;;5030608;28;20437;-49
2021/12/13 06:40:57;;;;;;;52.00;17.97;;;8.00;99.90;;;;;;5031732;28;20529;-49
2021/12/13 06:43:32;;;;;;;62.47;20.20;;;8.20;99.90;;;;;;5030409;28;20509;-49
2021/12/13 06:46:01;;;;;;;52.70;18.90;;;8.00;99.90;;;;;;5029576;28;20446;-49
2021/12/13 06:48:41;;;;;;;48.63;17.60;;;7.80;99.90;;;;;;5030670;28;20443;-51
2021/12/13 06:51:10;;;;;;;50.97;19.23;;;8.10;99.90;;;;;;5030417;28;20927;-51
2021/12/13 06:53:37;;;;;;;61.40;21.67;;;8.00;99.90;;;;;;5030011;28;20442;-50
2021/12/13 06:56:25;;;;;;;43.70;16.87;;;7.90;99.90;;;;;;5030523;28;20444;-51
2021/12/13 06:58:58;;;;;;;52.10;18.93;;;8.10;99.90;;;;;;5030557;28;20437;-50
2021/12/13 07:01:26;;;;;;;53.33;18.90;;;8.30;99.90;;;;;;5030346;28;20450;-50
2021/12/13 07:03:56;;;;;;;40.80;17.10;;;8.00;99.90;;;;;;5030505;28;20464;-51
2021/12/13 07:06:23;;;;;;;47.93;21.37;;;8.30;99.90;;;;;;5030845;28;20430;-50
2021/12/13 07:09:07;;;;;;;43.23;19.70;;;8.10;99.90;;;;;;5030381;28;20450;-50
2021/12/13 07:11:47;;;;;;;58.50;21.50;;;8.10;99.90;;;;;;5030515;28;20441;-49
2021/12/13 07:14:17;;;;;;;49.83;19.53;;;8.00;99.90;;;;;;5029223;28;20832;-50
2021/12/13 07:16:50;;;;;;;41.60;18.40;;;7.60;99.90;;;;;;5030575;28;20442;-51
2021/12/13 07:19:21;;;;;;;46.87;17.60;;;8.20;99.90;;;;;;5030172;28;20460;-50
2021/12/13 07:21:54;;;;;;;44.57;19.00;;;8.30;99.90;;;;;;5030395;28;20446;-49
2021/12/13 07:24:33;;;;;;;62.13;20.80;;;8.10;99.90;;;;;;5032508;28;20485;-50
2021/12/13 07:27:04;;;;;;;49.17;19.40;;;8.20;99.90;;;;;;5034771;28;20538;-50
2021/12/13 07:29:40;;;;;;;46.30;19.67;;;8.20;99.90;;;;;;5034412;28;20408;-49
2021/12/13 07:32:12;;;;;;;47.10;18.17;;;8.00;99.90;;;;;;5034799;28;20472;-50
2021/12/13 07:35:00;;;;;;;47.60;17.97;;;8.00;99.90;;;;;;5032940;28;20476;-50
2021/12/13 07:37:40;;;;;;;47.60;18.47;;;7.90;99.90;;;;;;5034434;28;20942;-49
2021/12/13 07:40:39;;;;;;;46.87;19.33;;;8.30;99.90;;;;;;5034061;28;20562;-49
2021/12/13 07:43:14;;;;;;;50.40;18.57;;;8.20;99.90;;;;;;5033522;28;20478;-51
2021/12/13 07:45:49;;;;;;;35.90;16.07;;;8.30;99.90;;;;;;5035024;28;20832;-49
2021/12/13 07:48:18;;;;;;;43.57;18.30;;;8.20;99.90;;;;;;5033996;28;20444;-49
2021/12/13 07:50:55;;;;;;;39.33;18.73;;;8.00;99.90;;;;;;5033454;28;20441;-49
2021/12/13 07:53:22;;;;;;;44.90;18.90;;;8.10;99.90;;;;;;5032559;28;20426;-49
2021/12/13 07:55:50;;;;;;;52.53;19.97;;;8.30;99.90;;;;;;5040736;23;20505;-50
2021/12/13 07:58:34;;;;;;;44.87;20.30;;;7.60;99.90;;;;;;4996978;28;20457;-48
2021/12/13 08:01:14;;;;;;;51.90;22.07;;;7.90;99.90;;;;;;5015571;28;20443;-50
2021/12/13 08:03:54;;;;;;;52.77;23.77;;;8.00;99.90;;;;;;5015318;28;20483;-49
2021/12/13 08:06:23;;;;;;;54.43;20.23;;;8.30;99.90;;;;;;4995946;28;20487;-49
2021/12/13 08:08:53;;;;;;;52.10;21.10;;;8.40;99.90;;;;;;4995541;28;20503;-49
2021/12/13 08:11:35;;;;;;;41.53;18.20;;;7.90;99.90;;;;;;4995570;28;20429;-49
2021/12/13 08:14:02;;;;;;;50.60;19.80;;;8.40;99.90;;;;;;4994990;28;20433;-48
2021/12/13 08:16:35;;;;;;;48.03;19.60;;;8.30;99.90;;;;;;4976326;28;20441;-49
2021/12/13 08:19:10;;;;;;;49.80;19.20;;;8.30;99.90;;;;;;4994264;28;20459;-48
2021/12/13 08:21:43;;;;;;;40.90;18.00;;;8.40;99.90;;;;;;4994734;28;20407;-49
2021/12/13 08:24:29;;;;;;;45.23;19.37;;;8.30;99.90;;;;;;4977308;28;20503;-49
2021/12/13 08:27:00;;;;;;;48.67;19.83;;;8.40;99.90;;;;;;4994803;28;20451;-49
2021/12/13 08:29:31;;;;;;;49.67;19.90;;;8.30;99.90;;;;;;4994320;28;20432;-50
2021/12/13 08:32:04;;;;;;;46.40;17.83;;;8.40;99.90;;;;;;4994653;28;20496;-49
2021/12/13 08:34:34;;;;;;;50.67;20.90;;;8.60;99.90;;;;;;4994312;28;20436;-49
2021/12/13 08:37:12;;;;;;;45.87;18.37;;;8.30;99.90;;;;;;4994493;28;20445;-51
2021/12/13 08:39:39;;;;;;;51.53;19.80;;;8.50;99.90;;;;;;4993905;28;20817;-49
2021/12/13 08:42:11;;;;;;;45.10;18.73;;;8.60;99.90;;;;;;4994251;28;20418;-49
2021/12/13 08:44:40;;;;;;;43.63;20.47;;;8.60;99.90;;;;;;4994322;28;20495;-50
2021/12/13 08:47:13;;;;;;;48.03;18.97;;;8.70;99.90;;;;;;4994377;28;20965;-50
2021/12/13 08:49:45;;;;;;;45.60;19.70;;;8.40;99.90;;;;;;4993882;28;20450;-50
2021/12/13 08:52:21;;;;;;;45.77;19.57;;;8.60;99.90;;;;;;4993384;28;20445;-48
2021/12/13 08:54:56;;;;;;;53.77;19.73;;;8.40;99.90;;;;;;4993782;28;20904;-50
2021/12/13 08:57:44;;;;;;;52.63;20.00;;;8.30;99.90;;;;;;4994268;28;20439;-49
2021/12/13 09:00:35;;;;;;;44.10;19.80;;;8.80;99.90;;;;;;4994041;28;20451;-50
2021/12/13 09:03:16;;;;;;;42.00;17.80;;;8.70;99.90;;;;;;4994525;28;20448;-51
2021/12/13 09:05:54;;;;;;;42.93;18.53;;;8.90;99.90;;;;;;4976561;28;20480;-50
2021/12/13 09:08:27;;;;;;;38.20;19.87;;;8.80;99.90;;;;;;4994471;28;20428;-50
2021/12/13 09:10:58;;;;;;;47.40;17.73;;;8.60;99.90;;;;;;4995032;28;20441;-49
2021/12/13 09:13:39;;;;;;;37.80;18.80;;;9.00;99.90;;;;;;4995052;28;20441;-49
2021/12/13 09:16:06;;;;;;;42.83;19.67;;;8.80;99.90;;;;;;4994225;28;20456;-48
2021/12/13 09:18:35;;;;;;;39.83;18.23;;;9.00;99.90;;;;;;4993826;28;20441;-48
2021/12/13 09:21:03;;;;;;;43.67;21.00;;;8.90;99.90;;;;;;4976582;28;20457;-49
2021/12/13 09:23:36;;;;;;;45.00;21.03;;;8.90;99.90;;;;;;4993632;28;20548;-50
2021/12/13 09:26:08;;;;;;;43.60;20.80;;;9.10;99.90;;;;;;4993568;28;20468;-49
2021/12/13 09:28:38;;;;;;;48.23;19.53;;;9.10;99.90;;;;;;4993442;28;20438;-50
2021/12/13 09:31:11;;;;;;;41.10;21.63;;;9.10;99.90;;;;;;4993329;28;20441;-49
2021/12/13 09:33:42;;;;;;;38.40;18.77;;;9.00;99.90;;;;;;4993272;28;20526;-49
2021/12/13 09:36:11;;;;;;;42.13;20.03;;;9.10;99.90;;;;;;4993397;28;20442;-51
2021/12/13 09:38:44;;;;;;;42.00;21.10;;;8.50;99.90;;;;;;4993117;28;20446;-49
2021/12/13 09:41:27;;;;;;;40.40;19.20;;;8.50;99.90;;;;;;4993192;28;20448;-51
2021/12/13 09:44:01;;;;;;;45.30;19.80;;;8.90;99.90;;;;;;4993550;28;20472;-50
2021/12/13 09:46:32;;;;;;;40.77;20.80;;;8.90;99.90;;;;;;4992467;28;20416;-49
2021/12/13 09:49:03;;;;;;;33.80;18.37;;;9.00;99.90;;;;;;4992479;28;21030;-49
2021/12/13 09:51:37;;;;;;;43.10;19.77;;;9.10;99.90;;;;;;4993047;28;20796;-49
2021/12/13 09:54:07;;;;;;;38.50;20.80;;;9.10;99.90;;;;;;4993082;28;20974;-49
2021/12/13 09:56:39;;;;;;;39.23;19.77;;;9.30;99.90;;;;;;4993080;28;20437;-49
2021/12/13 09:59:20;;;;;;;37.60;19.73;;;9.10;99.90;;;;;;4992645;28;20442;-49
2021/12/13 10:01:46;;;;;;;40.03;18.90;;;8.90;99.90;;;;;;4993087;28;20441;-48
2021/12/13 10:04:18;;;;;;;33.63;18.27;;;9.30;99.90;;;;;;4993166;28;20982;-50
2021/12/13 10:06:47;;;;;;;38.07;18.67;;;9.30;99.90;;;;;;4975290;28;20420;-50
2021/12/13 10:09:20;;;;;;;40.13;17.97;;;9.30;99.90;;;;;;4976110;28;20549;-49
2021/12/13 10:11:50;;;;;;;38.50;20.60;;;9.20;99.90;;;;;;4993800;28;20840;-49
2021/12/13 10:14:20;;;;;;;39.10;18.20;;;8.90;99.90;;;;;;4992484;28;20453;-50
2021/12/13 10:16:50;;;;;;;35.33;17.73;;;9.30;99.90;;;;;;4992870;28;20441;-49
2021/12/13 10:19:22;;;;;;;33.47;19.20;;;9.10;99.90;;;;;;4992087;28;20985;-49
2021/12/13 10:21:50;;;;;;;34.93;18.60;;;9.10;99.90;;;;;;4992320;28;20441;-49
2021/12/13 10:24:24;;;;;;;37.63;18.63;;;9.20;99.90;;;;;;4992498;28;20845;-49
2021/12/13 10:26:53;;;;;;;31.23;18.40;;;9.30;99.90;;;;;;4974847;28;20445;-48
2021/12/13 10:29:20;;;;;;;32.17;17.63;;;9.30;99.90;;;;;;4992012;28;20438;-49
2021/12/13 10:31:51;;;;;;;38.00;17.10;;;9.40;99.90;;;;;;4992347;28;20437;-48
2021/12/13 10:34:22;;;;;;;29.40;16.43;;;9.50;99.90;;;;;;4992696;28;20453;-49
2021/12/13 10:36:53;;;;;;;29.87;15.97;;;9.60;99.90;;;;;;4992183;28;20449;-47
2021/12/13 10:39:22;;;;;;;30.03;17.00;;;9.20;99.90;;;;;;4992246;28;20438;-49
2021/12/13 10:41:54;;;;;;;27.40;14.73;;;9.50;99.90;;;;;;4992412;28;20541;-51
2021/12/13 10:44:27;;;;;;;26.97;16.43;;;9.70;99.90;;;;;;4992467;28;20497;-49
2021/12/13 10:46:58;;;;;;;32.27;16.10;;;9.70;99.90;;;;;;4992366;28;20445;-49
2021/12/13 10:49:29;;;;;;;29.17;16.23;;;9.50;99.90;;;;;;4992175;28;20468;-50
2021/12/13 10:52:07;;;;;;;31.70;16.40;;;9.60;99.90;;;;;;4992104;28;20751;-49
2021/12/13 10:54:37;;;;;;;32.27;17.33;;;9.60;99.90;;;;;;4992516;28;20469;-52
2021/12/13 10:57:07;;;;;;;31.20;16.37;;;9.70;99.90;;;;;;4992099;28;20433;-49
2021/12/13 10:59:35;;;;;;;27.70;15.87;;;9.60;99.90;;;;;;4991969;28;20441;-49
2021/12/13 11:02:09;;;;;;;35.10;16.60;;;9.50;99.90;;;;;;4992165;28;20437;-49
2021/12/13 11:04:40;;;;;;;27.93;16.50;;;9.80;99.90;;;;;;4991649;28;20499;-48
2021/12/13 11:07:10;;;;;;;39.03;17.67;;;9.90;99.90;;;;;;4991799;28;20429;-51
2021/12/13 11:09:39;;;;;;;30.47;16.80;;;9.80;99.90;;;;;;4974425;28;20453;-50
2021/12/13 11:12:10;;;;;;;34.80;17.70;;;9.20;99.90;;;;;;4992331;28;20440;-49
2021/12/13 11:14:41;;;;;;;31.80;17.57;;;9.80;99.90;;;;;;4991680;28;20465;-52
2021/12/13 11:17:11;;;;;;;39.60;18.97;;;9.70;99.90;;;;;;4991737;28;20441;-50
2021/12/13 11:19:43;;;;;;;31.73;17.07;;;9.70;99.90;;;;;;4991463;28;20441;-50
2021/12/13 11:22:12;;;;;;;37.70;18.90;;;9.60;99.90;;;;;;4991559;28;20437;-48
2021/12/13 11:24:43;;;;;;;33.53;16.17;;;9.70;99.90;;;;;;4992297;28;20985;-51
2021/12/13 11:27:18;;;;;;;27.00;15.57;;;9.50;99.90;;;;;;4991817;28;20491;-49
2021/12/13 11:29:46;;;;;;;28.97;16.60;;;9.80;99.90;;;;;;4991198;28;20466;-51
2021/12/13 11:32:43;;;;;;;30.67;16.70;;;9.70;99.90;;;;;;4991870;28;20437;-51
2021/12/13 11:36:03;;;;;;;27.37;17.17;;;9.80;99.90;;;;;;4992382;28;20457;-50
2021/12/13 11:39:03;;;;;;;30.37;16.77;;;10.00;99.90;;;;;;4991872;28;20952;-50
2021/12/13 11:41:43;;;;;;;26.97;16.10;;;9.90;99.90;;;;;;4992308;28;20446;-49
2021/12/13 11:44:36;;;;;;;30.23;15.90;;;9.60;99.90;;;;;;4992265;28;20485;-49
2021/12/13 11:47:35;;;;;;;25.70;15.40;;;9.90;99.90;;;;;;4991493;28;20433;-50
2021/12/13 11:50:25;;;;;;;28.80;16.17;;;10.10;99.90;;;;;;4974370;28;20454;-50
2021/12/13 11:53:31;;;;;;;22.83;13.87;;;9.70;99.90;;;;;;4991386;28;20502;-51
2021/12/13 11:56:15;;;;;;;27.83;15.23;;;9.70;99.90;;;;;;4990283;28;20893;-50
2021/12/13 11:59:04;;;;;;;26.53;14.70;;;10.00;99.90;;;;;;4990337;28;20433;-49
2021/12/13 12:02:01;;;;;;;28.10;15.83;;;10.00;99.90;;;;;;4990541;28;20441;-49
2021/12/13 12:05:15;;;;;;;26.37;14.37;;;10.10;99.90;;;;;;4990570;28;20493;-49
2021/12/13 12:08:11;;;;;;;32.20;16.47;;;9.80;99.90;;;;;;4989801;28;20449;-49
2021/12/13 12:11:02;;;;;;;26.30;15.17;;;10.10;99.90;;;;;;4992116;28;20445;-51
2021/12/13 12:13:37;;;;;;;29.50;13.90;;;10.30;99.90;;;;;;4993730;28;20439;-50
2021/12/13 12:16:06;;;;;;;26.20;13.57;;;10.00;99.90;;;;;;4993465;28;20460;-49
2021/12/13 12:18:37;;;;;;;23.30;13.10;;;10.40;99.90;;;;;;4992979;28;20431;-50
2021/12/13 12:21:37;;;;;;;26.20;14.70;;;9.80;99.90;;;;;;4993503;28;20445;-49
2021/12/13 12:24:07;;;;;;;24.70;12.17;;;10.30;99.90;;;;;;4993415;28;20973;-49
2021/12/13 12:26:36;;;;;;;21.27;12.83;;;10.10;99.90;;;;;;4992759;28;20956;-49
2021/12/13 12:29:08;;;;;;;18.57;12.33;;;10.30;99.90;;;;;;4992920;28;20525;-48
2021/12/13 12:31:39;;;;;;;21.77;13.40;;;10.40;99.90;;;;;;4993325;28;20572;-50
2021/12/13 12:34:07;;;;;;;21.80;13.30;;;10.50;99.90;;;;;;4993203;28;20942;-50
2021/12/13 12:36:41;;;;;;;22.30;12.33;;;10.30;99.90;;;;;;4993675;28;20445;-50
2021/12/13 12:40:00;;;;;;;28.90;13.87;;;10.30;99.90;;;;;;4975542;28;20528;-49
2021/12/13 12:42:32;;;;;;;19.93;12.57;;;10.30;99.90;;;;;;4993286;28;20433;-50
2021/12/13 12:45:09;;;;;;;25.87;13.40;;;10.10;99.90;;;;;;4993910;28;20485;-49
2021/12/13 12:48:05;;;;;;;19.47;12.50;;;10.30;99.90;;;;;;4975279;28;20453;-52
2021/12/13 12:50:36;;;;;;;19.90;12.70;;;10.00;99.90;;;;;;4993235;28;20443;-48
2021/12/13 12:53:06;;;;;;;22.00;13.00;;;9.90;99.90;;;;;;4993191;28;20440;-49
2021/12/13 12:55:37;;;;;;;17.70;11.80;;;10.30;99.90;;;;;;4958491;28;1006431;-50
2021/12/13 12:58:10;;;;;;;22.40;12.67;;;10.10;99.90;;;;;;4993599;28;20206;-52
2021/12/13 13:00:37;;;;;;;18.60;13.53;;;10.30;99.90;;;;;;4993993;28;20449;-49
2021/12/13 13:03:04;;;;;;;20.27;13.17;;;10.30;99.90;;;;;;4993786;28;20441;-50
2021/12/13 13:05:32;;;;;;;22.73;13.10;;;10.40;99.90;;;;;;4993847;28;20477;-52
2021/12/13 13:07:59;;;;;;;19.67;13.00;;;10.10;99.90;;;;;;4993285;28;20408;-49
2021/12/13 13:10:35;;;;;;;16.20;11.10;;;10.40;99.90;;;;;;4994327;28;20437;-50
2021/12/13 13:13:05;;;;;;;24.20;12.80;;;10.20;99.90;;;;;;4994361;28;20437;-51
2021/12/13 13:15:39;;;;;;;19.67;12.20;;;10.30;99.90;;;;;;4993674;28;20462;-50